Time;durP1;ratioP1;P1;durP2;ratioP2;P2;SDS_P1;SDS_P2;PMS_P1;PMS_P2;Temp;Humidity;BMP_temperature;BMP_pressure;BME280_temperature;BME280_humidity;BME280_pressure;Samples;Min_cycle;Max_cycle;Signal;HPM_P1;HPM_P2
2021/03/17 00:00:12;;;;;;;8.55;4.65;;;;;;;2.73;89.36;99524.00;5065678;28;20047;-79
2021/03/17 00:02:40;;;;;;;6.75;3.60;;;;;;;2.65;89.80;99513.06;5058379;28;20049;-79
2021/03/17 00:05:07;;;;;;;6.53;4.65;;;;;;;2.57;89.78;99510.97;5071837;28;20052;-78
2021/03/17 00:07:34;;;;;;;7.10;4.55;;;;;;;2.75;89.84;99522.03;5072623;28;20416;-79
2021/03/17 00:10:01;;;;;;;7.03;4.50;;;;;;;2.61;89.90;99516.97;5059905;28;20041;-78
2021/03/17 00:12:27;;;;;;;8.15;4.57;;;;;;;2.58;90.12;99506.47;5058284;28;20048;-78
2021/03/17 00:14:53;;;;;;;6.30;4.10;;;;;;;2.76;89.69;99523.75;5070334;28;20060;-78
2021/03/17 00:17:19;;;;;;;6.38;4.13;;;;;;;2.66;90.48;99520.09;5071962;28;20207;-78
2021/03/17 00:19:47;;;;;;;8.07;4.30;;;;;;;2.68;90.07;99512.81;5068008;28;20056;-79
2021/03/17 00:22:13;;;;;;;8.95;4.53;;;;;;;2.72;89.82;99505.34;5071902;28;20061;-78
2021/03/17 00:24:40;;;;;;;13.20;5.80;;;;;;;2.61;89.67;99495.47;5071228;28;20052;-78
2021/03/17 00:27:07;;;;;;;12.27;7.07;;;;;;;2.60;90.21;99508.03;5070926;28;20048;-78
2021/03/17 00:29:33;;;;;;;15.40;7.93;;;;;;;2.68;90.26;99507.44;5071445;28;20488;-79
2021/03/17 00:31:59;;;;;;;17.50;7.28;;;;;;;2.70;90.02;99502.78;5071514;28;20083;-79
2021/03/17 00:34:26;;;;;;;14.70;7.53;;;;;;;2.70;89.40;99500.09;5070780;28;20056;-79
2021/03/17 00:36:53;;;;;;;16.27;7.72;;;;;;;2.83;89.41;99499.91;5070836;28;20041;-79
2021/03/17 00:39:19;;;;;;;12.20;7.38;;;;;;;2.71;89.79;99509.00;5071482;28;20048;-78
2021/03/17 00:41:45;;;;;;;8.30;4.85;;;;;;;2.57;89.12;99481.44;5071152;28;20052;-78
2021/03/17 00:44:12;;;;;;;10.50;5.43;;;;;;;2.78;89.45;99507.50;5069798;28;20040;-78
2021/03/17 00:46:38;;;;;;;5.80;4.47;;;;;;;2.61;89.52;99482.06;5071492;28;20098;-79
2021/03/17 00:49:07;;;;;;;7.18;5.00;;;;;;;2.70;89.54;99500.09;5070435;28;20040;-79
2021/03/17 00:51:33;;;;;;;8.55;4.43;;;;;;;2.63;89.41;99480.97;5071109;28;20056;-79
2021/03/17 00:54:00;;;;;;;10.55;4.22;;;;;;;2.67;89.37;99491.44;5070813;28;20549;-78
2021/03/17 00:56:26;;;;;;;6.53;4.07;;;;;;;2.69;89.59;99493.00;5071040;28;20105;-79
2021/03/17 00:58:52;;;;;;;7.15;4.68;;;;;;;2.68;88.86;99490.44;5070324;28;20064;-79
2021/03/17 01:01:19;;;;;;;6.90;4.38;;;;;;;2.60;88.83;99480.34;5064600;28;20123;-79
2021/03/17 01:03:45;;;;;;;7.72;4.50;;;;;;;2.64;88.65;99489.88;5057393;28;20454;-79
2021/03/17 01:06:11;;;;;;;7.15;4.22;;;;;;;2.62;89.29;99486.44;5069877;28;20045;-78
2021/03/17 01:08:37;;;;;;;8.52;4.38;;;;;;;2.55;89.45;99474.53;5070584;28;20044;-78
2021/03/17 01:11:05;;;;;;;6.15;4.55;;;;;;;2.63;89.08;99466.66;5070631;28;20059;-79
2021/03/17 01:13:31;;;;;;;7.82;5.00;;;;;;;2.57;89.09;99467.19;5070733;28;20048;-78
2021/03/17 01:15:57;;;;;;;7.53;4.50;;;;;;;2.57;89.13;99469.88;5069513;28;20088;-78
2021/03/17 01:18:23;;;;;;;8.93;4.38;;;;;;;2.60;89.31;99478.50;5066650;28;20098;-79
2021/03/17 01:20:50;;;;;;;7.97;4.70;;;;;;;2.58;89.87;99482.31;5071069;28;20052;-79
2021/03/17 01:23:16;;;;;;;8.25;4.68;;;;;;;2.64;89.93;99471.06;5069881;28;20053;-78
2021/03/17 01:25:44;;;;;;;7.65;5.07;;;;;;;2.57;89.95;99456.44;5069646;28;20044;-79
2021/03/17 01:28:12;;;;;;;8.38;4.80;;;;;;;2.62;89.69;99475.69;5066273;28;20404;-78
2021/03/17 01:30:40;;;;;;;10.52;5.05;;;;;;;2.68;89.62;99469.84;5070481;28;20049;-78
2021/03/17 01:33:08;;;;;;;7.10;4.82;;;;;;;2.69;90.30;99468.00;5070166;28;20044;-78
2021/03/17 01:35:35;;;;;;;6.30;4.30;;;;;;;2.57;90.20;99459.97;5069716;28;20126;-78
2021/03/17 01:38:01;;;;;;;7.22;5.10;;;;;;;2.57;90.02;99453.75;5070319;28;20049;-78
2021/03/17 01:40:29;;;;;;;8.43;5.05;;;;;;;2.67;89.83;99467.28;5070115;28;20048;-78
2021/03/17 01:42:56;;;;;;;6.07;4.40;;;;;;;2.73;90.04;99467.63;5070377;28;20045;-79
2021/03/17 01:45:24;;;;;;;8.90;4.70;;;;;;;2.61;89.97;99456.06;5069670;28;20052;-79
2021/03/17 01:47:52;;;;;;;8.77;5.50;;;;;;;2.58;90.04;99466.22;5070361;28;20496;-79
2021/03/17 01:50:20;;;;;;;8.30;5.18;;;;;;;2.53;90.47;99445.13;5069827;28;20468;-78
2021/03/17 01:52:46;;;;;;;8.20;5.40;;;;;;;2.64;90.37;99460.34;5070275;28;20056;-78
2021/03/17 01:55:13;;;;;;;8.35;5.15;;;;;;;2.58;90.39;99466.22;5069299;28;20067;-78
2021/03/17 01:57:39;;;;;;;7.78;4.65;;;;;;;2.75;90.33;99475.53;5069215;28;20080;-78
2021/03/17 02:00:08;;;;;;;6.88;5.13;;;;;;;2.68;90.15;99468.97;5070782;28;20048;-79
2021/03/17 02:02:36;;;;;;;8.88;6.00;;;;;;;2.53;90.24;99452.31;5068462;28;20056;-78
2021/03/17 02:05:06;;;;;;;7.68;5.38;;;;;;;2.62;90.53;99463.16;5069571;28;20546;-78
2021/03/17 02:07:32;;;;;;;9.60;6.60;;;;;;;2.57;90.23;99451.06;5069620;28;20059;-79
2021/03/17 02:09:58;;;;;;;9.57;5.80;;;;;;;2.55;89.97;99453.88;5066560;28;20406;-79
2021/03/17 02:12:35;;;;;;;10.52;5.88;;;;;;;2.63;90.04;99477.41;5058937;28;20072;-79
2021/03/17 02:15:15;;;;;;;8.82;5.68;;;;;;;2.59;89.82;99452.66;5067674;28;20072;-78
2021/03/17 02:17:46;;;;;;;6.88;4.82;;;;;;;2.62;89.38;99456.91;5068203;28;20137;-79
2021/03/17 02:20:38;;;;;;;8.68;5.60;;;;;;;2.64;89.66;99455.81;5069791;28;20052;-78
2021/03/17 02:23:14;;;;;;;8.30;5.35;;;;;;;2.69;89.43;99457.25;5069612;28;20074;-78
2021/03/17 02:26:24;;;;;;;7.80;5.32;;;;;;;2.69;89.64;99460.78;5069503;28;20049;-80
2021/03/17 02:29:00;;;;;;;9.90;5.70;;;;;;;2.69;89.13;99455.44;5051671;28;20408;-79
2021/03/17 02:31:49;;;;;;;12.70;6.03;;;;;;;2.62;89.31;99448.84;5069847;28;20463;-79
2021/03/17 02:34:19;;;;;;;12.32;5.93;;;;;;;2.58;89.37;99444.75;5058776;28;20060;-80
2021/03/17 02:36:50;;;;;;;8.65;5.47;;;;;;;2.62;89.30;99452.41;5070131;28;20041;-80
2021/03/17 02:39:20;;;;;;;8.77;5.97;;;;;;;2.57;89.67;99451.91;5060301;28;20055;-80
2021/03/17 02:41:53;;;;;;;7.90;5.25;;;;;;;2.61;89.62;99447.16;5069779;28;20099;-79
2021/03/17 02:44:20;;;;;;;8.35;5.78;;;;;;;2.56;89.84;99442.19;5068253;28;20580;-79
2021/03/17 02:46:47;;;;;;;12.18;6.68;;;;;;;2.65;90.07;99448.63;5062310;28;20302;-79
2021/03/17 02:49:19;;;;;;;8.57;6.05;;;;;;;2.64;89.63;99438.84;5060274;28;20037;-80
2021/03/17 02:51:50;;;;;;;7.78;5.78;;;;;;;2.82;89.03;99461.47;5070425;28;20075;-80
2021/03/17 02:54:20;;;;;;;8.57;5.72;;;;;;;2.75;88.41;99451.38;5067899;28;20617;-79
2021/03/17 02:56:49;;;;;;;12.88;6.95;;;;;;;2.48;89.21;99444.63;5069976;28;20137;-80
2021/03/17 02:59:17;;;;;;;16.55;7.15;;;;;;;2.73;nan;99461.41;5061149;28;20048;-80
2021/03/17 03:01:45;;;;;;;9.63;6.40;;;;;;;2.65;89.35;99444.09;5069722;28;20146;-80
2021/03/17 03:07:10;;;;;;;11.63;6.85;;;;;;;2.54;88.44;99444.13;5058275;28;20106;-79
2021/03/17 03:09:37;;;;;;;11.20;6.90;;;;;;;2.53;88.86;99445.13;5061994;28;20122;-79
2021/03/17 03:12:03;;;;;;;10.75;6.70;;;;;;;2.56;89.20;99449.34;5064831;28;20054;-79
2021/03/17 03:14:34;;;;;;;13.00;7.32;;;;;;;2.49;88.98;99451.72;5072434;28;20056;-79
2021/03/17 03:17:05;;;;;;;11.85;6.63;;;;;;;2.50;89.11;99453.44;5073000;28;20056;-80
2021/03/17 03:19:35;;;;;;;10.63;6.78;;;;;;;2.39;89.31;99440.03;5070443;28;20506;-79
2021/03/17 03:22:02;;;;;;;;;;;;;;;2.48;89.53;99455.38;5072766;28;20513;-79
2021/03/17 03:24:35;;;;;;;12.40;7.55;;;;;;;2.45;88.67;99429.66;5072078;28;19920;-79
2021/03/17 03:27:22;;;;;;;10.75;7.00;;;;;;;2.55;88.86;99455.72;5068180;28;20264;-79
2021/03/17 03:29:49;;;;;;;12.95;7.35;;;;;;;2.55;88.61;99450.38;5064046;28;20054;-79
2021/03/17 03:32:15;;;;;;;9.35;6.30;;;;;;;2.47;88.06;99435.75;5071979;28;20071;-80
2021/03/17 03:34:42;;;;;;;10.43;6.95;;;;;;;2.55;88.22;99447.69;5072041;28;20053;-79
2021/03/17 03:37:08;;;;;;;12.65;7.18;;;;;;;2.53;88.21;99444.25;5072280;28;20055;-79
2021/03/17 03:39:35;;;;;;;10.85;7.40;;;;;;;2.40;88.57;99450.63;5069558;28;20053;-79
2021/03/17 03:42:02;;;;;;;12.98;7.45;;;;;;;2.50;88.73;99471.34;5072412;28;20059;-79
2021/03/17 03:44:29;;;;;;;10.13;6.50;;;;;;;2.37;88.63;99456.25;5071878;28;20553;-79
2021/03/17 03:46:55;;;;;;;10.75;6.63;;;;;;;2.55;88.29;99474.53;5072443;28;20045;-79
2021/03/17 03:49:23;;;;;;;9.65;6.60;;;;;;;2.53;88.33;99457.66;5072079;28;20048;-79
2021/03/17 03:51:59;;;;;;;14.30;6.70;;;;;;;2.47;88.47;99453.69;5072900;28;20052;-80
2021/03/17 03:54:31;;;;;;;11.07;6.80;;;;;;;2.44;88.76;99462.00;5071119;28;20552;-79
2021/03/17 03:57:08;;;;;;;10.85;6.57;;;;;;;2.39;88.10;99451.59;5072580;28;20041;-79
2021/03/17 03:59:39;;;;;;;11.93;8.10;;;;;;;2.45;88.50;99459.19;5071189;28;20048;-79
2021/03/17 04:02:09;;;;;;;9.82;7.15;;;;;;;2.50;88.28;99472.22;5072426;28;20048;-79
2021/03/17 04:04:38;;;;;;;10.88;6.85;;;;;;;2.53;88.75;99484.50;5070689;28;20078;-79
2021/03/17 04:07:06;;;;;;;12.15;7.20;;;;;;;2.37;89.12;99472.34;5072695;28;20051;-79
2021/03/17 04:09:36;;;;;;;13.65;8.32;;;;;;;2.35;88.78;99468.06;5071578;28;20540;-80
2021/03/17 04:12:06;;;;;;;13.95;7.45;;;;;;;2.40;89.29;99474.78;5067704;28;20041;-79
2021/03/17 04:14:34;;;;;;;12.85;8.15;;;;;;;2.28;89.05;99470.41;5070270;28;20223;-79
2021/03/17 04:17:05;;;;;;;14.50;8.80;;;;;;;2.37;89.46;99490.28;5071619;28;20049;-80
2021/03/17 04:19:33;;;;;;;13.68;9.02;;;;;;;2.41;89.39;99486.34;5068280;28;20476;-80
2021/03/17 04:22:03;;;;;;;12.77;8.23;;;;;;;2.40;88.90;99490.03;5071275;28;20079;-80
2021/03/17 04:24:30;;;;;;;15.88;8.70;;;;;;;2.36;88.79;99470.63;5071386;28;20056;-80
2021/03/17 04:26:59;;;;;;;15.77;8.88;;;;;;;2.47;88.58;99483.19;5071336;28;21784;-79
2021/03/17 04:29:27;;;;;;;14.70;8.55;;;;;;;2.44;89.45;99488.81;5071845;28;20068;-80
2021/03/17 04:31:55;;;;;;;14.40;8.65;;;;;;;2.40;89.67;99482.84;5071456;28;20511;-80
2021/03/17 04:34:22;;;;;;;15.70;9.00;;;;;;;2.26;90.17;99480.44;5070686;28;20049;-80
2021/03/17 04:36:49;;;;;;;15.93;10.32;;;;;;;2.31;89.74;99472.84;5071248;28;20047;-78
2021/03/17 04:39:16;;;;;;;14.68;9.60;;;;;;;2.42;89.63;99469.28;5070644;28;20489;-78
2021/03/17 04:41:44;;;;;;;15.98;8.70;;;;;;;2.40;88.92;99460.53;5071570;28;20428;-77
2021/03/17 04:44:12;;;;;;;13.30;8.65;;;;;;;2.37;88.51;99472.34;5069952;28;20570;-78
2021/03/17 04:46:42;;;;;;;14.95;8.90;;;;;;;2.36;88.60;99475.16;5071798;28;20105;-77
2021/03/17 04:49:09;;;;;;;16.08;8.95;;;;;;;2.31;88.92;99480.91;5070717;28;20076;-79
2021/03/17 04:51:36;;;;;;;16.10;9.60;;;;;;;2.32;89.23;99487.09;5071917;28;20055;-78
2021/03/17 04:54:02;;;;;;;16.48;9.85;;;;;;;2.30;88.86;99485.44;5070204;28;20044;-78
2021/03/17 04:56:30;;;;;;;15.57;9.50;;;;;;;2.31;88.82;99494.31;5071251;28;20051;-78
2021/03/17 04:58:58;;;;;;;16.40;9.23;;;;;;;2.21;89.09;99496.03;5071470;28;20407;-79
2021/03/17 05:01:25;;;;;;;21.90;10.25;;;;;;;2.23;89.17;99489.56;5070185;28;20055;-78
2021/03/17 05:03:52;;;;;;;15.18;9.10;;;;;;;2.23;89.22;99502.13;5071242;28;20118;-78
2021/03/17 05:06:19;;;;;;;15.98;10.13;;;;;;;2.13;89.98;99504.69;5069968;28;20052;-79
2021/03/17 05:08:46;;;;;;;18.67;10.77;;;;;;;2.20;89.69;99511.28;5071373;28;20044;-79
2021/03/17 05:11:15;;;;;;;17.42;9.73;;;;;;;1.95;90.31;99486.41;5070059;28;20056;-79
2021/03/17 05:13:42;;;;;;;16.63;10.38;;;;;;;2.01;90.29;99494.94;5064851;28;20056;-79
2021/03/17 05:16:11;;;;;;;20.50;10.85;;;;;;;2.06;90.36;99512.38;5057585;28;20373;-80
2021/03/17 05:18:38;;;;;;;18.67;10.77;;;;;;;2.16;89.88;99508.97;5068132;28;20045;-82
2021/03/17 05:21:07;;;;;;;17.33;11.25;;;;;;;2.10;89.62;99481.66;5070610;28;20150;-79
2021/03/17 05:23:46;;;;;;;17.77;11.05;;;;;;;2.21;89.88;99510.28;5058949;28;20063;-81
2021/03/17 05:26:14;;;;;;;18.05;11.02;;;;;;;2.19;89.56;99500.69;5051946;28;20065;-79
2021/03/17 05:28:41;;;;;;;25.38;13.00;;;;;;;2.16;89.82;99501.75;5063928;28;20447;-80
2021/03/17 05:31:08;;;;;;;19.55;10.30;;;;;;;2.05;89.20;99493.75;5070791;28;20511;-80
2021/03/17 05:33:37;;;;;;;19.40;11.25;;;;;;;2.17;89.92;99511.53;5069006;28;20135;-80
2021/03/17 05:36:03;;;;;;;20.83;12.13;;;;;;;2.12;89.96;99511.03;5063986;28;20055;-80
2021/03/17 05:38:30;;;;;;;19.17;12.02;;;;;;;2.09;89.73;99501.41;5070244;28;20044;-79
2021/03/17 05:40:57;;;;;;;20.30;12.15;;;;;;;2.18;89.33;99523.09;5070364;28;20460;-80
2021/03/17 05:43:24;;;;;;;20.45;12.27;;;;;;;2.06;90.10;99508.84;5071170;28;20162;-80
2021/03/17 05:45:52;;;;;;;21.98;12.55;;;;;;;2.09;89.57;99501.41;5068084;28;20122;-80
2021/03/17 05:48:19;;;;;;;16.85;10.07;;;;;;;2.06;89.25;99506.16;5057967;28;20052;-80
2021/03/17 05:50:47;;;;;;;17.50;10.32;;;;;;;2.13;89.04;99526.16;5066428;28;20692;-79
2021/03/17 05:53:13;;;;;;;24.27;10.82;;;;;;;1.91;89.78;99509.09;5067870;28;20075;-80
2021/03/17 05:55:41;;;;;;;18.33;11.38;;;;;;;1.99;89.38;99519.22;5068899;28;20517;-80
2021/03/17 05:58:07;;;;;;;19.83;10.73;;;;;;;2.10;88.74;99524.56;5070413;28;20048;-80
2021/03/17 06:00:33;;;;;;;21.63;11.95;;;;;;;2.05;89.05;99523.25;5069918;28;20044;-80
2021/03/17 06:03:03;;;;;;;21.45;12.43;;;;;;;2.07;89.63;99523.97;5069540;28;20052;-80
2021/03/17 06:05:30;;;;;;;21.42;12.05;;;;;;;2.15;89.64;99539.44;5069399;28;20052;-80
2021/03/17 06:08:04;;;;;;;23.60;12.57;;;;;;;2.26;89.33;99540.31;5069318;28;20089;-80
2021/03/17 06:10:31;;;;;;;22.95;13.10;;;;;;;2.30;89.08;99535.53;5070178;28;20244;-80
2021/03/17 06:13:00;;;;;;;22.98;13.50;;;;;;;2.27;89.21;99536.66;5069665;28;20037;-80
2021/03/17 06:15:28;;;;;;;22.00;13.00;;;;;;;2.21;89.21;99534.44;5055272;28;20053;-80
2021/03/17 06:18:01;;;;;;;23.08;14.15;;;;;;;2.24;89.25;99542.25;5066447;28;20110;-80
2021/03/17 06:20:28;;;;;;;24.63;13.20;;;;;;;2.22;89.74;99548.72;5068459;28;20052;-80
2021/03/17 06:22:55;;;;;;;20.98;12.90;;;;;;;2.26;89.52;99547.50;5069699;28;20048;-80
2021/03/17 06:25:22;;;;;;;22.83;13.23;;;;;;;2.27;89.33;99551.88;5068605;28;20055;-80
2021/03/17 06:27:48;;;;;;;24.85;14.13;;;;;;;2.44;89.20;99558.59;5069683;28;20094;-79
2021/03/17 06:30:19;;;;;;;21.85;12.68;;;;;;;2.38;89.17;99551.88;5070258;28;20037;-80
2021/03/17 06:32:45;;;;;;;27.05;14.30;;;;;;;2.52;89.64;99560.66;5069776;28;20068;-80
2021/03/17 06:35:22;;;;;;;25.63;13.95;;;;;;;2.36;88.93;99532.34;5066179;28;20072;-81
2021/03/17 06:37:52;;;;;;;25.90;14.10;;;;;;;2.48;89.27;99565.41;5056188;28;20076;-81
2021/03/17 06:40:27;;;;;;;23.95;13.65;;;;;;;2.54;89.59;99553.31;5068511;28;20043;-81
2021/03/17 06:42:55;;;;;;;25.33;14.13;;;;;;;2.55;88.79;99547.00;5051248;28;20041;-81
2021/03/17 06:45:39;;;;;;;22.83;14.27;;;;;;;2.62;88.43;99550.84;5056959;28;20051;-80
2021/03/17 06:48:23;;;;;;;26.92;14.15;;;;;;;2.57;88.78;99553.91;5072760;28;20210;-81
2021/03/17 06:51:11;;;;;;;22.98;13.82;;;;;;;2.76;88.64;99561.34;5073499;28;20040;-81
2021/03/17 06:53:43;;;;;;;21.25;11.57;;;;;;;2.77;88.25;99564.88;5068628;28;20052;-80
2021/03/17 06:56:20;;;;;;;23.55;11.77;;;;;;;2.70;88.51;99553.78;5072754;28;20044;-80
2021/03/17 06:58:48;;;;;;;20.10;11.95;;;;;;;2.76;88.38;99561.34;5073834;28;20098;-80
2021/03/17 07:01:29;;;;;;;25.02;14.05;;;;;;;2.78;87.75;99553.16;5073380;28;20075;-80
2021/03/17 07:03:56;;;;;;;26.25;13.80;;;;;;;2.87;87.62;99562.28;5072962;28;20056;-80
2021/03/17 07:06:23;;;;;;;20.58;12.02;;;;;;;3.00;87.17;99568.38;5072897;28;20068;-80
2021/03/17 07:08:50;;;;;;;22.63;13.02;;;;;;;3.05;87.37;99568.81;5072452;28;20403;-80
2021/03/17 07:11:22;;;;;;;25.90;13.20;;;;;;;3.18;87.68;99582.13;5073479;28;20048;-80
2021/03/17 07:13:54;;;;;;;25.52;13.20;;;;;;;3.07;87.53;99560.66;5072721;28;20048;-80
2021/03/17 07:16:30;;;;;;;23.63;12.95;;;;;;;3.13;87.49;99561.00;5062340;28;20056;-80
2021/03/17 07:18:59;;;;;;;24.00;12.88;;;;;;;3.14;87.06;99577.97;5068620;28;20395;-80
2021/03/17 07:21:34;;;;;;;23.38;13.10;;;;;;;3.09;87.42;99567.59;5058325;28;20048;-80
2021/03/17 07:24:01;;;;;;;25.33;13.50;;;;;;;3.24;86.13;99564.59;5072441;28;20484;-80
2021/03/17 07:26:29;;;;;;;22.27;11.50;;;;;;;2.99;86.86;99574.72;5071592;28;20101;-80
2021/03/17 07:28:59;;;;;;;20.92;12.15;;;;;;;3.05;87.37;99582.25;5072859;28;20101;-80
2021/03/17 07:31:27;;;;;;;21.20;12.88;;;;;;;3.03;86.59;99581.53;5066788;28;20064;-79
2021/03/17 07:34:07;;;;;;;26.08;13.05;;;;;;;3.23;86.85;99576.34;5071326;28;20052;-80
2021/03/17 07:36:39;;;;;;;22.48;13.80;;;;;;;3.45;85.64;99583.47;5063486;28;20527;-78
2021/03/17 07:39:09;;;;;;;19.83;9.10;;;;;;;3.39;86.13;99594.72;5067560;28;20056;-78
2021/03/17 07:41:36;;;;;;;22.45;13.98;;;;;;;3.60;86.00;99595.63;5060628;28;20041;-78
2021/03/17 07:44:05;;;;;;;24.88;12.43;;;;;;;3.52;84.72;99601.66;5063112;28;20178;-78
2021/03/17 07:46:32;;;;;;;24.45;12.50;;;;;;;3.31;84.84;99593.56;5063920;28;20044;-78
2021/03/17 07:49:01;;;;;;;24.85;13.00;;;;;;;3.62;84.79;99592.81;5069285;28;20454;-78
2021/03/17 07:51:28;;;;;;;24.63;12.27;;;;;;;3.54;84.17;99585.38;5072507;28;20068;-79
2021/03/17 07:53:56;;;;;;;21.35;11.30;;;;;;;3.67;84.10;99579.81;5053816;28;20562;-78
2021/03/17 07:56:25;;;;;;;27.10;12.60;;;;;;;3.70;83.11;99583.09;5069951;28;20041;-78
2021/03/17 07:58:53;;;;;;;23.63;13.10;;;;;;;3.94;83.17;99599.97;5072776;28;20048;-78
2021/03/17 08:01:21;;;;;;;19.15;10.65;;;;;;;3.98;82.30;99580.72;5062178;28;20045;-78
2021/03/17 08:03:48;;;;;;;22.17;11.68;;;;;;;4.27;82.25;99590.78;5061725;28;20076;-78
2021/03/17 08:06:17;;;;;;;24.15;12.45;;;;;;;4.61;80.40;99599.44;5052081;28;20515;-78
2021/03/17 08:08:44;;;;;;;25.25;11.68;;;;;;;4.61;77.72;99587.84;5063454;28;20052;-78
2021/03/17 08:11:13;;;;;;;20.55;11.35;;;;;;;4.60;79.20;99589.66;5056790;28;20048;-79
2021/03/17 08:13:43;;;;;;;26.02;11.30;;;;;;;4.60;78.54;99597.72;5072475;28;20048;-78
2021/03/17 08:16:12;;;;;;;24.08;11.45;;;;;;;4.30;79.38;99587.84;5068149;28;20053;-78
2021/03/17 08:18:46;;;;;;;25.88;11.48;;;;;;;4.33;78.86;99595.63;5061760;28;20056;-78
2021/03/17 08:21:13;;;;;;;18.13;11.00;;;;;;;4.35;79.22;99595.50;5072103;28;20110;-78
2021/03/17 08:23:50;;;;;;;23.02;11.30;;;;;;;4.29;80.49;99593.34;5076932;28;20048;-80
2021/03/17 08:26:44;;;;;;;19.42;10.82;;;;;;;4.32;79.48;99595.78;5069692;28;20059;-79
2021/03/17 08:29:14;;;;;;;18.75;10.98;;;;;;;4.21;79.17;99588.66;5071984;28;20463;-79
2021/03/17 08:31:52;;;;;;;15.75;9.20;;;;;;;4.30;79.73;99587.00;5067240;28;20053;-79
2021/03/17 08:34:29;;;;;;;17.95;10.43;;;;;;;4.55;77.45;99594.59;5071374;28;20048;-80
2021/03/17 08:37:04;;;;;;;19.08;10.20;;;;;;;4.67;76.70;99563.03;5071429;28;20447;-79
2021/03/17 08:39:51;;;;;;;18.92;9.35;;;;;;;4.81;76.23;99579.81;5071728;28;20499;-79
2021/03/17 08:42:31;;;;;;;16.88;8.85;;;;;;;4.96;73.66;99560.41;5071598;28;20044;-78
2021/03/17 08:45:03;;;;;;;12.90;7.85;;;;;;;5.02;72.84;99564.41;5069395;28;20048;-79
2021/03/17 08:47:34;;;;;;;15.52;8.35;;;;;;;4.99;74.54;99553.06;5074151;28;20052;-80
2021/03/17 08:50:19;;;;;;;16.55;8.23;;;;;;;4.85;75.42;99559.66;5073548;28;20083;-79
2021/03/17 08:52:48;;;;;;;15.13;7.53;;;;;;;4.74;74.60;99563.34;5069464;28;20053;-79
2021/03/17 08:55:17;;;;;;;12.90;7.73;;;;;;;4.83;74.73;99559.81;5070219;28;20053;-79
2021/03/17 08:58:03;;;;;;;14.02;7.57;;;;;;;4.59;74.59;99569.13;5071303;28;20060;-79
2021/03/17 09:00:57;;;;;;;11.52;7.20;;;;;;;4.51;73.79;99577.00;5071153;28;20064;-79
2021/03/17 09:03:44;;;;;;;15.18;7.68;;;;;;;4.64;73.43;99584.00;5071448;28;20419;-79
2021/03/17 09:06:14;;;;;;;15.05;6.93;;;;;;;4.54;72.49;99583.97;5069304;28;20083;-79
2021/03/17 09:09:15;;;;;;;12.77;6.32;;;;;;;4.65;70.84;99569.56;5071301;28;20044;-79
2021/03/17 09:12:00;;;;;;;15.15;7.35;;;;;;;4.85;70.96;99590.19;5038342;28;20079;-79
2021/03/17 09:14:31;;;;;;;12.52;6.60;;;;;;;4.68;70.55;99582.75;5070175;28;20151;-79
2021/03/17 09:17:29;;;;;;;10.38;5.55;;;;;;;4.71;69.01;99583.34;5070711;28;20040;-79
2021/03/17 09:20:15;;;;;;;10.77;5.10;;;;;;;4.69;70.75;99579.06;5070043;28;20500;-79
2021/03/17 09:22:48;;;;;;;12.13;5.78;;;;;;;4.78;68.92;99571.00;5070458;28;20040;-79
2021/03/17 09:25:25;;;;;;;7.72;4.40;;;;;;;4.92;68.16;99564.41;5070158;28;20040;-79
2021/03/17 09:28:04;;;;;;;7.47;4.60;;;;;;;5.12;65.62;99551.78;5070397;28;20045;-79
2021/03/17 09:30:38;;;;;;;7.07;4.55;;;;;;;5.07;64.40;99547.81;5070876;28;20086;-79
2021/03/17 09:33:07;;;;;;;8.38;5.03;;;;;;;5.38;67.68;99577.34;5070610;28;20183;-79
2021/03/17 09:35:34;;;;;;;9.80;4.50;;;;;;;5.29;66.47;99577.19;5070227;28;20101;-79
2021/03/17 09:38:07;;;;;;;6.47;4.20;;;;;;;5.15;66.41;99558.75;5070952;28;20056;-79
2021/03/17 09:40:36;;;;;;;7.57;4.00;;;;;;;4.99;64.37;99571.91;5070094;28;20412;-78
2021/03/17 09:43:04;;;;;;;10.82;3.67;;;;;;;4.61;65.00;99555.53;5070626;28;20048;-78
2021/03/17 09:45:31;;;;;;;7.80;4.63;;;;;;;4.75;67.32;99576.66;5069639;28;20060;-79
2021/03/17 09:47:58;;;;;;;7.35;4.65;;;;;;;4.49;68.29;99587.06;5070388;28;20098;-79
2021/03/17 09:50:28;;;;;;;11.25;5.68;;;;;;;4.29;68.39;99564.63;5070299;28;20045;-79
2021/03/17 09:52:54;;;;;;;10.68;5.90;;;;;;;4.46;69.22;99598.13;5068518;28;20044;-79
2021/03/17 09:55:34;;;;;;;10.55;6.15;;;;;;;4.23;71.89;99592.03;5069424;28;20048;-79
2021/03/17 09:58:03;;;;;;;11.05;5.13;;;;;;;4.24;70.67;99608.06;5070825;28;20409;-79
2021/03/17 10:00:30;;;;;;;10.82;6.30;;;;;;;4.11;71.86;99603.88;5070467;28;20052;-79
2021/03/17 10:02:58;;;;;;;10.70;5.53;;;;;;;4.08;72.14;99600.47;5070127;28;20048;-79
2021/03/17 10:05:24;;;;;;;13.75;6.07;;;;;;;4.12;72.93;99592.97;5069961;28;20045;-79
2021/03/17 10:07:51;;;;;;;12.10;5.70;;;;;;;4.19;76.32;99588.78;5070155;28;20057;-80
2021/03/17 10:10:18;;;;;;;11.02;5.15;;;;;;;4.24;75.23;99589.22;5070635;28;20086;-79
2021/03/17 10:12:44;;;;;;;9.38;5.20;;;;;;;4.29;72.67;99566.44;5070193;28;20543;-79
2021/03/17 10:15:16;;;;;;;10.65;5.55;;;;;;;4.58;72.89;99578.19;5069708;28;20057;-79
2021/03/17 10:17:44;;;;;;;11.25;5.80;;;;;;;4.99;71.11;99574.63;5068842;28;20114;-80
2021/03/17 10:20:12;;;;;;;13.63;3.97;;;;;;;5.10;71.25;99585.25;5069268;28;20048;-79
2021/03/17 10:22:38;;;;;;;4.72;3.10;;;;;;;4.94;70.67;99573.19;5069859;28;20424;-79
2021/03/17 10:25:11;;;;;;;5.85;2.75;;;;;;;4.94;67.64;99577.72;5069198;28;20270;-79
2021/03/17 10:27:41;;;;;;;5.88;3.25;;;;;;;5.18;66.92;99555.78;5070326;28;20446;-79
2021/03/17 10:30:12;;;;;;;6.15;3.10;;;;;;;5.43;68.70;99558.88;5064122;28;20041;-79
2021/03/17 10:32:42;;;;;;;4.32;2.38;;;;;;;5.13;68.25;99566.09;5069781;28;20052;-79
2021/03/17 10:35:12;;;;;;;6.38;3.08;;;;;;;5.36;66.27;99542.44;5069272;28;20060;-79
2021/03/17 10:37:39;;;;;;;5.80;2.70;;;;;;;5.44;65.26;99563.31;5070215;28;20041;-79
2021/03/17 10:40:10;;;;;;;5.80;2.78;;;;;;;5.03;64.90;99544.56;5069735;28;20078;-79
2021/03/17 10:42:44;;;;;;;10.38;2.92;;;;;;;4.90;64.01;99543.97;5070092;28;20470;-79
2021/03/17 10:45:12;;;;;;;4.40;2.40;;;;;;;5.12;62.84;99551.78;5069463;28;20056;-79
2021/03/17 10:47:44;;;;;;;6.03;2.60;;;;;;;5.01;64.22;99569.94;5069765;28;20055;-79
2021/03/17 10:50:13;;;;;;;5.22;2.42;;;;;;;4.92;64.28;99561.69;5069625;28;20048;-79
2021/03/17 10:52:41;;;;;;;4.00;2.25;;;;;;;4.59;64.93;99571.81;5068495;28;20048;-79
2021/03/17 10:55:14;;;;;;;6.60;1.98;;;;;;;4.65;65.92;99569.56;5068737;28;20048;-79
2021/03/17 10:57:41;;;;;;;3.20;2.20;;;;;;;4.76;64.35;99553.28;5070304;28;20044;-79
2021/03/17 11:00:17;;;;;;;4.20;2.13;;;;;;;4.54;65.76;99552.50;5069770;28;20067;-79
2021/03/17 11:02:44;;;;;;;10.35;2.65;;;;;;;4.57;65.65;99571.06;5062164;28;20052;-79
2021/03/17 11:05:13;;;;;;;4.95;2.47;;;;;;;4.57;65.48;99554.09;5068865;28;20052;-79
2021/03/17 11:07:57;;;;;;;4.10;2.25;;;;;;;4.63;62.53;99566.16;5069879;28;20049;-79
2021/03/17 11:10:29;;;;;;;5.55;2.25;;;;;;;4.60;63.44;99549.25;5069304;28;20048;-79
2021/03/17 11:12:55;;;;;;;6.03;2.65;;;;;;;4.60;64.80;99549.25;5069292;28;20052;-79
2021/03/17 11:15:25;;;;;;;10.77;2.55;;;;;;;4.56;63.70;99539.78;5068993;28;20171;-78
2021/03/17 11:17:53;;;;;;;5.85;2.90;;;;;;;4.78;65.28;99562.91;5068456;28;20056;-79
2021/03/17 11:20:19;;;;;;;4.60;2.60;;;;;;;4.69;67.69;99544.06;5069005;28;20068;-79
2021/03/17 11:22:46;;;;;;;4.28;2.50;;;;;;;4.69;65.52;99562.91;5069536;28;20044;-79
2021/03/17 11:25:13;;;;;;;5.55;2.78;;;;;;;4.75;66.49;99565.06;5068594;28;20048;-79
2021/03/17 11:27:40;;;;;;;7.55;3.35;;;;;;;4.71;64.85;99561.78;5069358;28;20056;-79
2021/03/17 11:30:08;;;;;;;5.72;2.35;;;;;;;4.74;64.65;99558.81;5072211;28;20048;-79
2021/03/17 11:32:34;;;;;;;6.10;2.75;;;;;;;4.45;65.20;99552.50;5072936;28;20053;-78
2021/03/17 11:35:02;;;;;;;5.75;2.53;;;;;;;4.57;66.09;99564.84;5071913;28;20053;-79
2021/03/17 11:37:28;;;;;;;5.90;2.70;;;;;;;4.42;67.36;99548.22;5073052;28;20492;-79
2021/03/17 11:39:54;;;;;;;6.97;2.35;;;;;;;4.24;68.87;99554.22;5072441;28;20041;-79
2021/03/17 11:42:21;;;;;;;8.85;2.70;;;;;;;4.32;68.00;99560.78;5073349;28;20064;-79
2021/03/17 11:44:47;;;;;;;5.57;2.97;;;;;;;4.37;70.25;99580.09;5072094;28;20052;-78
2021/03/17 11:47:13;;;;;;;4.60;2.63;;;;;;;4.17;71.94;99579.13;5072406;28;20102;-78
2021/03/17 11:49:40;;;;;;;6.20;3.42;;;;;;;4.09;72.02;99579.78;5072739;28;20045;-79